createdAt,value
2017-10-17T00:01:16.873Z,35.13
2017-10-17T00:03:42.980Z,33.37
2017-10-17T00:06:08.939Z,32.70
2017-10-17T00:08:34.890Z,30.70
2017-10-17T00:11:00.867Z,29.70
2017-10-17T00:13:26.811Z,29.47
2017-10-17T00:15:53.514Z,33.67
2017-10-17T00:18:19.498Z,28.30
2017-10-17T00:20:45.444Z,28.77
2017-10-17T00:23:12.191Z,31.70
2017-10-17T00:25:38.684Z,31.67
2017-10-17T00:28:04.823Z,31.90
2017-10-17T00:30:37.596Z,29.47
2017-10-17T00:33:05.344Z,29.47
2017-10-17T00:35:38.084Z,29.80
2017-10-17T00:38:04.032Z,29.03
2017-10-17T00:40:30.755Z,30.10
2017-10-17T00:42:57.703Z,27.90
2017-10-17T00:45:25.652Z,31.33
2017-10-17T00:47:52.735Z,31.70
2017-10-17T00:50:20.351Z,29.70
2017-10-17T00:52:46.337Z,31.33
2017-10-17T00:55:12.299Z,30.07
2017-10-17T00:57:38.256Z,30.87
2017-10-17T01:00:04.986Z,29.73
2017-10-17T01:02:33.081Z,29.30
2017-10-17T01:04:59.119Z,32.63
2017-10-17T01:07:25.551Z,32.33
2017-10-17T01:09:52.500Z,25.33
2017-10-17T01:12:19.180Z,25.50
2017-10-17T01:14:45.132Z,28.43
2017-10-17T01:17:11.903Z,28.20
2017-10-17T01:19:37.839Z,26.17
2017-10-17T01:22:03.882Z,32.07
2017-10-17T01:24:30.708Z,29.60
2017-10-17T01:26:56.627Z,34.30
2017-10-17T01:29:27.485Z,35.37
2017-10-17T01:31:53.468Z,24.20
2017-10-17T01:34:21.352Z,25.37
2017-10-17T01:36:47.332Z,27.00
2017-10-17T01:39:14.253Z,26.87
2017-10-17T01:41:41.700Z,29.17
2017-10-17T01:44:07.632Z,28.63
2017-10-17T01:46:36.340Z,31.60
2017-10-17T01:49:04.213Z,31.10
2017-10-17T01:51:30.200Z,30.57
2017-10-17T01:54:10.751Z,25.80
2017-10-17T01:56:37.513Z,24.73
2017-10-17T01:59:06.210Z,26.33
2017-10-17T02:01:32.132Z,27.27
2017-10-17T02:03:58.125Z,29.17
2017-10-17T02:06:24.255Z,27.90
2017-10-17T02:08:50.916Z,28.57
2017-10-17T02:11:17.865Z,30.33
2017-10-17T02:13:44.694Z,34.50
2017-10-17T02:16:10.913Z,25.97
2017-10-17T02:18:37.851Z,27.60
2017-10-17T02:21:04.818Z,25.93
2017-10-17T02:23:30.842Z,31.17
2017-10-17T02:26:04.653Z,25.20
2017-10-17T02:28:31.594Z,27.03
2017-10-17T02:31:01.406Z,29.53
2017-10-17T02:33:32.476Z,25.13
2017-10-17T02:35:58.432Z,27.70
2017-10-17T02:38:24.908Z,35.80
2017-10-17T02:40:52.639Z,31.83
2017-10-17T02:43:19.509Z,29.30
2017-10-17T02:45:46.574Z,26.70
2017-10-17T02:48:15.658Z,32.23
2017-10-17T02:50:42.184Z,29.87
2017-10-17T02:53:08.771Z,27.77
2017-10-17T02:55:34.843Z,28.63
2017-10-17T02:58:01.805Z,30.30
2017-10-17T03:00:29.019Z,27.00
2017-10-17T03:02:55.098Z,26.57
2017-10-17T03:05:28.883Z,27.40
2017-10-17T03:07:58.787Z,28.10
2017-10-17T03:10:24.716Z,25.17
2017-10-17T03:12:50.723Z,24.43
2017-10-17T03:15:20.359Z,27.80
2017-10-17T03:23:17.834Z,26.10
2017-10-17T03:25:44.643Z,27.47
2017-10-17T03:28:19.095Z,25.17
2017-10-17T03:30:45.042Z,27.07
2017-10-17T03:33:13.344Z,24.03
2017-10-17T03:35:39.302Z,25.63
2017-10-17T03:38:19.179Z,22.03
2017-10-17T03:40:57.251Z,26.57
2017-10-17T03:43:35.446Z,28.93
2017-10-17T03:46:01.401Z,27.40
2017-10-17T03:48:27.336Z,25.20
2017-10-17T03:50:53.349Z,27.33
2017-10-17T03:53:45.978Z,26.27
2017-10-17T03:56:12.795Z,29.90
2017-10-17T03:58:41.379Z,27.20
2017-10-17T04:01:08.358Z,27.33
2017-10-17T04:03:40.224Z,27.93
2017-10-17T04:06:07.791Z,30.63
2017-10-17T04:08:34.707Z,28.90
2017-10-17T04:11:23.818Z,26.77
2017-10-17T04:27:48.327Z,31.17
2017-10-17T04:30:32.288Z,26.70
2017-10-17T04:33:03.888Z,28.70
2017-10-17T04:35:29.908Z,34.30
2017-10-17T04:37:55.942Z,32.63
2017-10-17T04:40:27.742Z,29.27
2017-10-17T04:46:14.581Z,28.23
2017-10-17T04:49:00.335Z,29.00
2017-10-17T04:51:34.095Z,33.30
2017-10-17T04:54:06.845Z,36.17
2017-10-17T04:56:32.874Z,36.43
2017-10-17T05:12:30.430Z,39.10
2017-10-17T05:14:56.399Z,32.83
2017-10-17T05:17:43.290Z,28.83
2017-10-17T05:20:24.239Z,29.27
2017-10-17T05:22:50.224Z,30.93
2017-10-17T05:25:29.962Z,34.97
2017-10-17T05:28:17.079Z,30.00
2017-10-17T05:30:47.727Z,29.60
2017-10-17T05:33:30.510Z,29.77
2017-10-17T05:35:57.280Z,33.67
2017-10-17T05:38:24.124Z,34.83
2017-10-17T05:40:50.227Z,31.70
2017-10-17T05:43:18.765Z,34.27
2017-10-17T05:45:44.891Z,30.63
2017-10-17T05:48:13.845Z,28.10
2017-10-17T05:50:55.875Z,36.57
2017-10-17T05:53:22.076Z,32.60
2017-10-17T05:55:49.629Z,32.57
2017-10-17T05:58:16.416Z,30.90
2017-10-17T06:00:42.502Z,35.47
2017-10-17T06:03:08.537Z,34.10
2017-10-17T06:05:34.644Z,38.00
2017-10-17T06:08:00.778Z,36.50
2017-10-17T06:10:26.740Z,37.80
2017-10-17T06:12:53.195Z,31.83
2017-10-17T06:15:19.236Z,33.83
2017-10-17T06:17:45.759Z,31.53
2017-10-17T06:20:12.510Z,31.70
2017-10-17T06:22:38.721Z,29.30
2017-10-17T06:25:05.568Z,26.83
2017-10-17T06:27:31.588Z,30.17
2017-10-17T06:29:57.915Z,35.10
2017-10-17T06:32:23.989Z,35.57
2017-10-17T06:34:49.977Z,32.13
2017-10-17T06:37:16.084Z,30.73
2017-10-17T06:39:42.157Z,27.30
2017-10-17T06:42:08.120Z,29.67
2017-10-17T06:44:34.158Z,30.03
2017-10-17T06:47:00.677Z,28.10
2017-10-17T06:49:27.009Z,24.03
2017-10-17T06:54:25.238Z,33.53
2017-10-17T06:56:51.261Z,39.70
2017-10-17T06:59:18.523Z,41.97
2017-10-17T07:01:45.137Z,35.20
2017-10-17T07:04:11.147Z,54.67
2017-10-17T07:06:39.684Z,39.13
2017-10-17T07:09:06.573Z,34.50
2017-10-17T07:11:32.537Z,48.20
2017-10-17T07:14:00.214Z,41.10
2017-10-17T07:16:27.785Z,38.43
2017-10-17T07:18:59.109Z,35.90
2017-10-17T07:21:25.916Z,35.67
2017-10-17T07:23:52.916Z,30.80
2017-10-17T07:26:19.246Z,43.13
2017-10-17T07:28:46.031Z,32.80
2017-10-17T07:31:12.039Z,44.33
2017-10-17T07:33:38.331Z,40.80
2017-10-17T07:38:34.862Z,31.53
2017-10-17T07:43:33.258Z,39.00
2017-10-17T07:48:30.428Z,28.43
2017-10-17T07:50:58.473Z,32.80
2017-10-17T07:53:24.481Z,35.87
2017-10-17T07:55:50.537Z,42.13
2017-10-17T07:58:16.602Z,38.20
2017-10-17T08:00:43.548Z,37.33
2017-10-17T08:03:09.649Z,40.77
2017-10-17T08:08:14.291Z,40.97
2017-10-17T08:10:40.496Z,35.87
2017-10-17T08:13:08.261Z,40.43
2017-10-17T08:15:34.627Z,44.00
2017-10-17T08:18:00.724Z,34.17
2017-10-17T08:20:27.097Z,33.70
2017-10-17T08:22:53.209Z,40.30
2017-10-17T08:25:19.371Z,36.50
2017-10-17T08:27:45.319Z,38.10
2017-10-17T08:30:11.265Z,35.70
2017-10-17T08:32:37.263Z,35.40
2017-10-17T08:35:04.665Z,35.40
2017-10-17T08:37:30.615Z,38.10
2017-10-17T08:39:56.693Z,41.53
2017-10-17T08:42:22.788Z,37.27
2017-10-17T08:44:53.595Z,43.17
2017-10-17T08:47:19.827Z,34.23
2017-10-17T08:49:46.483Z,38.73
2017-10-17T08:52:12.503Z,35.50
2017-10-17T08:54:40.083Z,33.93
2017-10-17T08:57:06.802Z,36.63
2017-10-17T08:59:32.986Z,35.30
2017-10-17T09:01:59.027Z,31.20
2017-10-17T09:04:26.727Z,40.03
2017-10-17T09:06:57.413Z,33.87
2017-10-17T09:09:24.752Z,36.33
2017-10-17T09:11:53.182Z,33.23
2017-10-17T09:14:20.192Z,31.20
2017-10-17T09:16:47.121Z,34.43
2017-10-17T09:19:13.145Z,35.03
2017-10-17T09:24:10.900Z,32.07
2017-10-17T09:26:36.854Z,30.00
2017-10-17T09:29:03.108Z,31.97
2017-10-17T09:31:29.108Z,31.30
2017-10-17T09:33:55.489Z,30.33
2017-10-17T09:36:24.136Z,28.77
2017-10-17T09:38:50.178Z,29.67
2017-10-17T09:41:16.904Z,28.20
2017-10-17T09:43:42.950Z,31.50
2017-10-17T09:46:09.751Z,27.83
2017-10-17T09:48:36.518Z,25.73
2017-10-17T09:51:03.550Z,31.07
2017-10-17T09:53:30.508Z,32.00
2017-10-17T09:55:56.516Z,28.03
2017-10-17T09:58:23.460Z,31.57
2017-10-17T10:00:50.418Z,26.03
2017-10-17T10:03:16.424Z,28.57
2017-10-17T10:05:42.459Z,28.33
2017-10-17T10:08:08.481Z,26.17
2017-10-17T10:10:34.730Z,31.57
2017-10-17T10:13:00.727Z,26.63
2017-10-17T10:15:26.862Z,27.50
2017-10-17T10:17:53.626Z,28.70
2017-10-17T10:20:19.603Z,26.87
2017-10-17T10:22:45.651Z,28.53
2017-10-17T10:25:11.648Z,23.13
2017-10-17T10:27:37.612Z,25.60
2017-10-17T10:30:03.614Z,22.80
2017-10-17T10:32:29.625Z,25.03
2017-10-17T10:34:56.442Z,27.40
2017-10-17T10:37:22.438Z,23.77
2017-10-17T10:39:48.430Z,23.20
2017-10-17T10:42:15.062Z,21.47
2017-10-17T10:44:41.011Z,25.07
2017-10-17T10:47:06.970Z,21.20
2017-10-17T10:49:32.922Z,24.17
2017-10-17T10:51:58.948Z,19.70
2017-10-17T10:54:24.966Z,22.77
2017-10-17T10:56:50.984Z,25.80
2017-10-17T10:59:17.198Z,21.03
2017-10-17T11:01:43.239Z,19.40
2017-10-17T11:04:09.321Z,18.07
2017-10-17T11:06:35.288Z,20.23
2017-10-17T11:09:01.282Z,22.53
2017-10-17T11:11:27.335Z,20.27
2017-10-17T11:13:54.098Z,18.63
2017-10-17T11:16:20.043Z,18.20
2017-10-17T11:18:47.484Z,17.77
2017-10-17T11:21:13.580Z,19.10
2017-10-17T11:23:39.522Z,17.77
2017-10-17T11:26:07.394Z,15.73
2017-10-17T11:28:34.224Z,16.40
2017-10-17T11:31:01.304Z,18.80
2017-10-17T11:33:27.341Z,17.67
2017-10-17T11:35:54.326Z,17.93
2017-10-17T11:38:20.300Z,13.90
2017-10-17T11:40:58.601Z,18.10
2017-10-17T11:43:37.679Z,21.20
2017-10-17T11:46:03.880Z,16.20
2017-10-17T11:48:31.420Z,17.77
2017-10-17T11:50:57.467Z,18.70
2017-10-17T11:53:23.548Z,15.90
2017-10-17T11:55:50.429Z,14.23
2017-10-17T11:58:16.415Z,15.70
2017-10-17T12:00:42.340Z,15.33
2017-10-17T12:03:08.289Z,18.50
2017-10-17T12:05:34.296Z,21.07
2017-10-17T12:08:00.334Z,16.57
2017-10-17T12:10:26.355Z,17.93
2017-10-17T12:12:52.331Z,15.63
2017-10-17T12:15:18.322Z,14.60
2017-10-17T12:17:44.350Z,18.10
2017-10-17T12:20:10.456Z,15.10
2017-10-17T12:22:37.136Z,14.90
2017-10-17T12:25:03.262Z,20.63
2017-10-17T12:27:30.044Z,19.43
2017-10-17T12:29:56.706Z,13.20
2017-10-17T12:32:22.738Z,14.27
2017-10-17T12:34:48.755Z,14.97
2017-10-17T12:37:15.556Z,14.50
2017-10-17T12:39:41.614Z,14.40
2017-10-17T12:42:07.613Z,14.33
2017-10-17T12:44:34.602Z,13.90
2017-10-17T12:47:00.580Z,13.30
2017-10-17T12:49:26.605Z,15.63
2017-10-17T12:51:52.629Z,13.63
2017-10-17T12:54:20.288Z,15.73
2017-10-17T12:56:47.952Z,13.37
2017-10-17T12:59:14.646Z,14.37
2017-10-17T13:01:40.615Z,15.20
2017-10-17T13:04:06.619Z,14.67
2017-10-17T13:06:33.363Z,14.77
2017-10-17T13:09:00.732Z,17.00
2017-10-17T13:11:27.675Z,14.40
2017-10-17T13:13:54.454Z,12.77
2017-10-17T13:16:20.480Z,15.27
2017-10-17T13:18:46.735Z,14.73
2017-10-17T13:21:12.791Z,24.80
2017-10-17T13:23:39.741Z,17.70
2017-10-17T13:26:05.792Z,22.20
2017-10-17T13:28:32.059Z,12.80
2017-10-17T13:30:58.800Z,16.33
2017-10-17T13:33:25.562Z,13.37
2017-10-17T13:35:51.535Z,16.60
2017-10-17T13:38:17.510Z,15.37
2017-10-17T13:40:43.475Z,14.23
2017-10-17T13:43:09.467Z,14.17
2017-10-17T13:45:35.631Z,15.87
2017-10-17T13:48:03.161Z,14.37
2017-10-17T13:50:29.268Z,17.47
2017-10-17T13:52:55.480Z,13.77
2017-10-17T13:55:21.425Z,15.27
2017-10-17T13:57:48.360Z,14.80
2017-10-17T14:00:14.392Z,12.57
2017-10-17T14:02:40.399Z,13.90
2017-10-17T14:05:06.458Z,15.23
2017-10-17T14:07:32.532Z,17.37
2017-10-17T14:09:59.334Z,13.07
2017-10-17T14:12:26.197Z,13.23
2017-10-17T14:14:53.083Z,13.40
2017-10-17T14:17:19.111Z,13.93
2017-10-17T14:19:45.830Z,13.03
2017-10-17T14:22:12.150Z,15.40
2017-10-17T14:24:38.381Z,15.57
2017-10-17T14:27:04.584Z,15.70
2017-10-17T14:29:30.558Z,15.63
2017-10-17T14:31:57.096Z,14.30
2017-10-17T14:34:23.315Z,15.07
2017-10-17T14:36:49.267Z,13.00
2017-10-17T14:39:15.251Z,13.23
2017-10-17T14:41:41.240Z,16.70
2017-10-17T14:44:07.981Z,14.10
2017-10-17T14:46:34.209Z,13.80
2017-10-17T14:49:00.880Z,13.67
2017-10-17T14:51:26.885Z,15.20
2017-10-17T14:53:52.925Z,14.13
2017-10-17T14:56:19.876Z,15.80
2017-10-17T14:58:46.043Z,16.27
2017-10-17T15:01:13.750Z,14.10
2017-10-17T15:03:40.910Z,19.90
2017-10-17T15:06:07.932Z,20.83
2017-10-17T15:08:33.955Z,15.93
2017-10-17T15:11:00.068Z,35.80
2017-10-17T15:13:27.789Z,17.67
2017-10-17T15:15:54.630Z,26.17
2017-10-17T15:18:20.879Z,24.83
2017-10-17T15:20:47.860Z,22.80
2017-10-17T15:23:17.829Z,22.67
2017-10-17T15:25:43.818Z,22.80
2017-10-17T15:28:10.760Z,22.90
2017-10-17T15:30:36.888Z,22.40
2017-10-17T15:33:03.065Z,43.10
2017-10-17T15:35:29.872Z,29.20
2017-10-17T15:37:55.806Z,32.60
2017-10-17T15:40:23.380Z,18.37
2017-10-17T15:42:49.389Z,28.80
2017-10-17T15:45:15.433Z,17.70
2017-10-17T15:47:41.547Z,34.33
2017-10-17T15:50:07.819Z,46.17
2017-10-17T15:52:33.847Z,35.20
2017-10-17T15:54:59.935Z,29.80
2017-10-17T15:57:26.450Z,31.47
2017-10-17T15:59:52.442Z,61.70
2017-10-17T16:02:18.486Z,40.70
2017-10-17T16:04:45.744Z,33.90
2017-10-17T16:07:11.710Z,45.00
2017-10-17T16:09:37.693Z,25.00
2017-10-17T16:12:04.506Z,34.13
2017-10-17T16:14:31.261Z,33.73
2017-10-17T16:16:57.300Z,26.33
2017-10-17T16:19:24.233Z,27.53
2017-10-17T16:21:50.179Z,25.43
2017-10-17T16:24:16.116Z,23.83
2017-10-17T16:26:42.136Z,27.40
2017-10-17T16:29:08.149Z,21.80
2017-10-17T16:31:34.905Z,26.80
2017-10-17T16:34:01.848Z,20.50
2017-10-17T16:36:27.832Z,23.73
2017-10-17T16:38:53.894Z,24.87
2017-10-17T16:41:19.918Z,25.53
2017-10-17T16:43:45.921Z,25.87
2017-10-17T16:46:13.439Z,28.20
2017-10-17T16:48:39.742Z,20.87
2017-10-17T16:51:05.759Z,24.87
2017-10-17T16:53:31.769Z,27.83
2017-10-17T16:55:58.510Z,30.33
2017-10-17T16:58:25.282Z,28.23
2017-10-17T17:00:52.673Z,27.70
2017-10-17T17:03:18.673Z,36.10
2017-10-17T17:05:44.679Z,32.93
2017-10-17T17:08:10.746Z,26.10
2017-10-17T17:10:36.885Z,28.97
2017-10-17T17:13:03.130Z,31.87
2017-10-17T17:15:30.013Z,28.70
2017-10-17T17:17:56.000Z,30.53
2017-10-17T17:20:22.169Z,30.87
2017-10-17T17:22:48.188Z,29.00
2017-10-17T17:25:14.171Z,31.30
2017-10-17T17:27:40.159Z,32.83
2017-10-17T17:30:09.460Z,37.00
2017-10-17T17:32:36.189Z,32.83
2017-10-17T17:35:02.161Z,34.63
2017-10-17T17:37:28.491Z,34.53
2017-10-17T17:39:54.716Z,42.23
2017-10-17T17:42:21.549Z,41.77
2017-10-17T17:44:47.811Z,34.23
2017-10-17T17:47:13.782Z,34.83
2017-10-17T17:49:42.212Z,33.33
2017-10-17T17:52:10.065Z,34.87
2017-10-17T17:54:36.162Z,32.20
2017-10-17T17:57:02.942Z,34.93
2017-10-17T17:59:28.920Z,39.57
2017-10-17T18:01:54.989Z,41.20
2017-10-17T18:04:21.953Z,34.67
2017-10-17T18:06:47.931Z,35.73
2017-10-17T18:09:13.883Z,33.60
2017-10-17T18:11:40.760Z,36.23
2017-10-17T18:14:06.650Z,39.07
2017-10-17T18:16:32.717Z,39.90
2017-10-17T18:18:58.695Z,37.00
2017-10-17T18:21:24.696Z,40.20
2017-10-17T18:23:52.826Z,31.37
2017-10-17T18:26:18.810Z,32.43
2017-10-17T18:28:45.127Z,29.03
2017-10-17T18:31:11.523Z,30.90
2017-10-17T18:33:37.704Z,42.40
2017-10-17T18:36:03.822Z,48.20
2017-10-17T18:38:30.017Z,38.20
2017-10-17T18:40:56.069Z,44.47
2017-10-17T18:43:23.384Z,29.57
2017-10-17T18:48:23.856Z,41.20
2017-10-17T18:50:49.882Z,39.97
2017-10-17T18:53:15.896Z,37.30
2017-10-17T19:00:45.481Z,39.83
2017-10-17T19:05:43.668Z,31.43
2017-10-17T19:20:52.432Z,32.77
2017-10-17T19:28:22.761Z,33.33
2017-10-17T19:33:22.633Z,35.83
2017-10-17T19:35:51.067Z,36.83
2017-10-17T19:38:17.929Z,34.50
2017-10-17T19:40:45.142Z,35.10
2017-10-17T19:43:11.614Z,39.43
2017-10-17T19:45:40.693Z,41.90
2017-10-17T19:48:08.257Z,41.73
2017-10-17T19:55:37.558Z,34.90
2017-10-17T19:58:07.761Z,39.30
2017-10-17T20:08:12.055Z,36.03
2017-10-17T20:13:13.508Z,40.07
2017-10-17T20:15:41.609Z,36.10
2017-10-17T20:18:13.330Z,36.93
2017-10-17T20:20:43.815Z,36.03
2017-10-17T20:28:18.928Z,40.00
2017-10-17T20:38:21.268Z,30.53
2017-10-17T20:40:48.055Z,29.70
2017-10-17T20:48:15.660Z,41.47
2017-10-17T20:50:43.004Z,33.83
2017-10-17T20:53:10.259Z,35.73
2017-10-17T20:58:09.612Z,36.93
2017-10-17T21:00:36.084Z,38.57
2017-10-17T21:03:05.763Z,34.83
2017-10-17T21:08:02.412Z,33.13
2017-10-17T21:15:30.367Z,32.53
2017-10-17T21:17:57.108Z,38.83
2017-10-17T21:25:26.972Z,32.40
2017-10-17T21:27:53.003Z,40.53
2017-10-17T21:30:19.064Z,31.87
2017-10-17T21:32:45.100Z,36.97
2017-10-17T21:35:11.615Z,36.07
2017-10-17T21:37:37.867Z,34.07
2017-10-17T21:40:04.453Z,33.70
2017-10-17T21:42:30.652Z,35.50
2017-10-17T21:44:58.122Z,31.20
2017-10-17T21:47:24.217Z,39.57
2017-10-17T21:49:50.876Z,31.07
2017-10-17T21:52:16.855Z,29.50
2017-10-17T21:54:42.820Z,26.90
2017-10-17T21:57:08.838Z,36.83
2017-10-17T21:59:34.780Z,35.37
2017-10-17T22:02:00.746Z,30.63
2017-10-17T22:04:26.835Z,31.80
2017-10-17T22:06:52.838Z,33.23
2017-10-17T22:09:19.901Z,31.83
2017-10-17T22:11:45.915Z,27.37
2017-10-17T22:14:12.020Z,28.70
2017-10-17T22:16:38.817Z,28.93
2017-10-17T22:19:04.804Z,26.97
2017-10-17T22:21:30.780Z,30.70
2017-10-17T22:23:57.056Z,26.47
2017-10-17T22:26:23.170Z,32.47
2017-10-17T22:28:49.105Z,30.40
2017-10-17T22:31:15.071Z,28.77
2017-10-17T22:33:41.046Z,27.70
2017-10-17T22:36:07.015Z,29.10
2017-10-17T22:38:37.027Z,31.17
2017-10-17T22:41:03.721Z,31.07
2017-10-17T22:43:29.641Z,30.40
2017-10-17T22:45:55.683Z,28.60
2017-10-17T22:48:21.694Z,36.40
2017-10-17T22:50:48.435Z,29.13
2017-10-17T22:53:14.465Z,29.87
2017-10-17T22:55:40.506Z,30.90
2017-10-17T22:58:06.502Z,27.00
2017-10-17T23:00:32.483Z,38.20
2017-10-17T23:02:59.241Z,29.13
2017-10-17T23:05:25.267Z,32.43
2017-10-17T23:07:51.269Z,30.80
2017-10-17T23:10:17.292Z,29.60
2017-10-17T23:12:43.971Z,28.80
2017-10-17T23:15:10.969Z,31.03
2017-10-17T23:17:49.340Z,30.63
2017-10-17T23:20:27.697Z,31.20
2017-10-17T23:22:53.944Z,32.73
2017-10-17T23:25:20.628Z,29.23
2017-10-17T23:27:46.632Z,28.47
2017-10-17T23:30:12.698Z,28.57
2017-10-17T23:32:38.867Z,31.00
2017-10-17T23:35:04.800Z,29.60
2017-10-17T23:37:30.815Z,28.97
2017-10-17T23:39:56.827Z,30.50
2017-10-17T23:42:22.759Z,26.67
2017-10-17T23:44:48.681Z,27.70
2017-10-17T23:47:14.655Z,32.70
2017-10-17T23:49:40.605Z,30.90
2017-10-17T23:52:06.562Z,27.40
2017-10-17T23:54:33.267Z,28.83
2017-10-17T23:56:59.302Z,28.13
2017-10-17T23:59:25.314Z,30.20
